Time;durP1;ratioP1;P1;durP2;ratioP2;P2;SDS_P1;SDS_P2;PMS_P1;PMS_P2;Temp;Humidity;BMP_temperature;BMP_pressure;BME280_temperature;BME280_humidity;BME280_pressure;Samples;Min_cycle;Max_cycle;Signal;HPM_P1;HPM_P2
2021/07/05 00:00:15;;;;;;;26.85;22.58;;;;;;;;;;5020945;28;20645;-72
2021/07/05 00:02:42;;;;;;;26.63;21.48;;;;;;;;;;5016103;28;20186;-72
2021/07/05 00:05:08;;;;;;;27.92;22.77;;;;;;;;;;5016407;28;20525;-71
2021/07/05 00:07:34;;;;;;;27.92;22.45;;;;;;;;;;5009358;28;20190;-73
2021/07/05 00:09:59;;;;;;;27.85;24.17;;;;;;;;;;5006567;28;20225;-76
2021/07/05 00:12:25;;;;;;;31.33;24.45;;;;;;;;;;4995581;28;20532;-73
2021/07/05 00:14:51;;;;;;;31.13;24.48;;;;;;;;;;5020739;28;20210;-74
2021/07/05 00:17:16;;;;;;;27.17;23.00;;;;;;;;;;5011024;28;20269;-73
2021/07/05 00:19:42;;;;;;;29.02;23.67;;;;;;;;;;5005940;28;20189;-74
2021/07/05 00:22:07;;;;;;;29.00;25.75;;;;;;;;;;5006322;28;20194;-75
2021/07/05 00:24:33;;;;;;;30.90;25.33;;;;;;;;;;5021565;28;20722;-74
2021/07/05 00:26:59;;;;;;;28.48;22.92;;;;;;;;;;5008269;28;20271;-73
2021/07/05 00:29:24;;;;;;;30.33;25.45;;;;;;;;;;5006952;28;20202;-74
2021/07/05 00:31:50;;;;;;;26.73;22.13;;;;;;;;;;4998446;28;20208;-73
2021/07/05 00:34:16;;;;;;;28.55;24.95;;;;;;;;;;5013923;28;20720;-72
2021/07/05 00:36:41;;;;;;;32.20;26.00;;;;;;;;;;5021791;28;20257;-74
2021/07/05 00:39:07;;;;;;;31.20;25.48;;;;;;;;;;4998090;28;20554;-72
2021/07/05 00:41:32;;;;;;;27.83;24.83;;;;;;;;;;5024693;28;20316;-73
2021/07/05 00:43:58;;;;;;;32.70;24.58;;;;;;;;;;5014025;28;20277;-74
2021/07/05 00:46:25;;;;;;;30.73;25.05;;;;;;;;;;5020945;28;20794;-72
2021/07/05 00:48:51;;;;;;;33.70;25.02;;;;;;;;;;5033320;28;20229;-71
2021/07/05 00:51:17;;;;;;;31.02;23.85;;;;;;;;;;5043496;28;20656;-74
2021/07/05 00:53:44;;;;;;;33.78;26.25;;;;;;;;;;5033196;28;20255;-72
2021/07/05 00:56:10;;;;;;;34.38;25.85;;;;;;;;;;5041911;28;20278;-71
2021/07/05 00:58:35;;;;;;;28.15;23.13;;;;;;;;;;5029935;28;20210;-71
2021/07/05 01:01:01;;;;;;;29.05;22.98;;;;;;;;;;5036743;28;20201;-74
2021/07/05 01:03:26;;;;;;;30.92;25.60;;;;;;;;;;5037710;28;20189;-72
2021/07/05 01:05:51;;;;;;;28.10;24.95;;;;;;;;;;5031443;28;20185;-74
2021/07/05 01:08:17;;;;;;;30.13;23.83;;;;;;;;;;5038246;28;20189;-74
2021/07/05 01:10:42;;;;;;;29.35;25.35;;;;;;;;;;5027245;28;20224;-73
2021/07/05 01:13:07;;;;;;;28.05;24.13;;;;;;;;;;5040397;28;20268;-73
2021/07/05 01:15:33;;;;;;;31.30;25.40;;;;;;;;;;5033197;28;20178;-73
2021/07/05 01:18:02;;;;;;;30.60;23.33;;;;;;;;;;5043399;28;20619;-71
2021/07/05 01:20:31;;;;;;;27.73;22.33;;;;;;;;;;5035237;28;20185;-71
2021/07/05 01:22:57;;;;;;;22.42;20.15;;;;;;;;;;5040649;28;20255;-72
2021/07/05 01:25:27;;;;;;;27.48;22.35;;;;;;;;;;5034266;28;20220;-69
2021/07/05 01:27:53;;;;;;;24.70;21.70;;;;;;;;;;5038131;28;20182;-71
2021/07/05 01:30:21;;;;;;;23.10;20.58;;;;;;;;;;5033624;28;20702;-72
2021/07/05 01:32:47;;;;;;;22.83;20.30;;;;;;;;;;5042971;28;20181;-73
2021/07/05 01:35:15;;;;;;;22.33;19.50;;;;;;;;;;5035036;28;20194;-73
2021/07/05 01:37:40;;;;;;;24.58;20.25;;;;;;;;;;5042398;28;20193;-74
2021/07/05 01:40:08;;;;;;;24.45;20.73;;;;;;;;;;5040367;28;20276;-73
2021/07/05 01:42:34;;;;;;;24.38;20.25;;;;;;;;;;5031384;28;20193;-73
2021/07/05 01:45:01;;;;;;;21.20;18.23;;;;;;;;;;5040520;28;20664;-74
2021/07/05 01:47:26;;;;;;;23.40;19.58;;;;;;;;;;5022690;28;20606;-72
2021/07/05 01:49:52;;;;;;;18.58;16.50;;;;;;;;;;5025221;28;20241;-75
2021/07/05 01:52:17;;;;;;;22.95;19.02;;;;;;;;;;5016419;28;20190;-74
2021/07/05 01:54:43;;;;;;;23.10;18.30;;;;;;;;;;5023371;28;20190;-74
2021/07/05 01:57:27;;;;;;;23.20;19.17;;;;;;;;;;5015692;28;20193;-74
2021/07/05 01:59:57;;;;;;;24.65;19.65;;;;;;;;;;5024175;28;20571;-73
2021/07/05 02:02:24;;;;;;;23.50;17.77;;;;;;;;;;5019301;28;20185;-74
2021/07/05 02:04:50;;;;;;;22.40;17.55;;;;;;;;;;5027932;28;20201;-74
2021/07/05 02:07:15;;;;;;;20.55;17.30;;;;;;;;;;5020896;28;20189;-74
2021/07/05 02:09:41;;;;;;;22.23;17.95;;;;;;;;;;5027951;28;20206;-73
2021/07/05 02:12:07;;;;;;;20.20;16.63;;;;;;;;;;5020792;28;20186;-73
2021/07/05 02:14:32;;;;;;;22.80;18.08;;;;;;;;;;5027456;28;20201;-74
2021/07/05 02:16:58;;;;;;;26.52;18.17;;;;;;;;;;5029675;28;20182;-75
2021/07/05 02:19:23;;;;;;;25.15;18.30;;;;;;;;;;5018269;28;20659;-73
2021/07/05 02:21:49;;;;;;;22.58;18.50;;;;;;;;;;5024709;28;20185;-74
2021/07/05 02:24:14;;;;;;;25.85;18.63;;;;;;;;;;5017557;28;20224;-74
2021/07/05 02:26:41;;;;;;;23.25;18.45;;;;;;;;;;5008965;28;20181;-75
2021/07/05 02:29:06;;;;;;;20.02;17.42;;;;;;;;;;5018232;28;20241;-73
2021/07/05 02:31:32;;;;;;;26.15;18.92;;;;;;;;;;5028633;28;20213;-73
2021/07/05 02:33:58;;;;;;;25.02;17.65;;;;;;;;;;5018952;28;20646;-73
2021/07/05 02:36:23;;;;;;;24.15;17.27;;;;;;;;;;5023771;28;20602;-74
2021/07/05 02:38:49;;;;;;;25.50;17.70;;;;;;;;;;5018747;28;20190;-74
2021/07/05 02:41:14;;;;;;;22.38;17.25;;;;;;;;;;5011259;28;20272;-74
2021/07/05 02:43:40;;;;;;;19.40;17.40;;;;;;;;;;5021104;28;21001;-74
2021/07/05 02:46:05;;;;;;;21.77;16.13;;;;;;;;;;5019180;28;20197;-74
2021/07/05 02:48:32;;;;;;;20.55;16.50;;;;;;;;;;5023208;28;20567;-73
2021/07/05 02:51:02;;;;;;;22.33;16.27;;;;;;;;;;5016084;28;20238;-74
2021/07/05 02:53:28;;;;;;;21.02;16.13;;;;;;;;;;5022670;28;20186;-73
2021/07/05 02:55:53;;;;;;;25.83;17.13;;;;;;;;;;4998041;28;20186;-75
2021/07/05 02:58:19;;;;;;;23.92;17.20;;;;;;;;;;5003906;28;20266;-74
2021/07/05 03:00:49;;;;;;;20.48;16.70;;;;;;;;;;5013176;28;20700;-75
2021/07/05 03:03:15;;;;;;;24.45;17.98;;;;;;;;;;5009152;28;20276;-73
2021/07/05 03:05:40;;;;;;;21.73;17.10;;;;;;;;;;5014588;28;20315;-72
2021/07/05 03:08:06;;;;;;;23.80;17.25;;;;;;;;;;5019260;28;20190;-73
2021/07/05 03:10:35;;;;;;;21.60;17.13;;;;;;;;;;5015253;28;20222;-73
2021/07/05 03:13:04;;;;;;;26.00;17.27;;;;;;;;;;5023860;28;20197;-73
2021/07/05 03:15:30;;;;;;;26.20;16.92;;;;;;;;;;5016090;28;20595;-73
2021/07/05 03:17:56;;;;;;;19.58;17.40;;;;;;;;;;5023181;28;20190;-74
2021/07/05 03:20:24;;;;;;;20.88;16.95;;;;;;;;;;5005070;28;20320;-73
2021/07/05 03:22:50;;;;;;;23.08;17.05;;;;;;;;;;5014939;28;20329;-73
2021/07/05 03:25:19;;;;;;;20.88;15.82;;;;;;;;;;5027000;28;20204;-73
2021/07/05 03:27:45;;;;;;;20.73;16.00;;;;;;;;;;4996186;28;20227;-73
2021/07/05 03:30:13;;;;;;;23.33;15.65;;;;;;;;;;5017960;28;20287;-73
2021/07/05 03:32:39;;;;;;;20.63;14.88;;;;;;;;;;4997031;28;20194;-73
2021/07/05 03:35:07;;;;;;;26.25;14.80;;;;;;;;;;5021121;28;20285;-73
2021/07/05 03:37:33;;;;;;;19.00;14.60;;;;;;;;;;5014759;28;20201;-73
2021/07/05 03:39:58;;;;;;;17.38;14.10;;;;;;;;;;5027927;28;20183;-73
2021/07/05 03:42:23;;;;;;;19.02;13.10;;;;;;;;;;5015536;28;20745;-73
2021/07/05 03:44:49;;;;;;;19.48;13.05;;;;;;;;;;5026036;28;20190;-74
2021/07/05 03:47:14;;;;;;;21.08;13.18;;;;;;;;;;5015564;28;20234;-72
2021/07/05 03:49:40;;;;;;;27.60;13.60;;;;;;;;;;5024758;28;20240;-73
2021/07/05 03:52:05;;;;;;;17.20;10.93;;;;;;;;;;5020086;28;20190;-71
2021/07/05 03:54:30;;;;;;;18.20;13.43;;;;;;;;;;5020974;28;20237;-73
2021/07/05 03:56:56;;;;;;;17.27;12.48;;;;;;;;;;5023861;28;20237;-74
2021/07/05 03:59:21;;;;;;;26.20;12.73;;;;;;;;;;5010587;28;20288;-73
2021/07/05 04:01:47;;;;;;;21.80;12.35;;;;;;;;;;5023875;28;20197;-73
2021/07/05 04:04:12;;;;;;;16.75;12.57;;;;;;;;;;5013799;28;20202;-72
2021/07/05 04:06:38;;;;;;;23.20;12.07;;;;;;;;;;5022567;28;20224;-73
2021/07/05 04:09:05;;;;;;;18.08;11.88;;;;;;;;;;5009930;28;20267;-71
2021/07/05 04:11:31;;;;;;;19.55;11.02;;;;;;;;;;5022561;28;20187;-71
2021/07/05 04:13:56;;;;;;;19.33;10.70;;;;;;;;;;5013109;28;20188;-72
2021/07/05 04:16:23;;;;;;;18.05;11.07;;;;;;;;;;5007553;28;20186;-71
2021/07/05 04:18:48;;;;;;;17.90;11.02;;;;;;;;;;4998768;28;20194;-73
2021/07/05 04:21:14;;;;;;;18.77;11.20;;;;;;;;;;5006160;28;20200;-72
2021/07/05 04:23:39;;;;;;;15.98;11.23;;;;;;;;;;5026203;28;20196;-71
2021/07/05 04:26:05;;;;;;;15.02;10.75;;;;;;;;;;5012655;28;20622;-73
2021/07/05 04:28:30;;;;;;;17.30;11.38;;;;;;;;;;5023952;28;20247;-73
2021/07/05 04:30:56;;;;;;;22.73;13.30;;;;;;;;;;5014155;28;20198;-71
2021/07/05 04:33:22;;;;;;;21.90;12.05;;;;;;;;;;5022776;28;20248;-75
2021/07/05 04:35:48;;;;;;;16.92;11.68;;;;;;;;;;4999094;28;20178;-73
2021/07/05 04:38:13;;;;;;;20.58;12.13;;;;;;;;;;5025374;28;20198;-71
2021/07/05 04:40:40;;;;;;;17.25;11.98;;;;;;;;;;5014626;28;20186;-72
2021/07/05 04:43:06;;;;;;;17.67;11.73;;;;;;;;;;5021737;28;20189;-74
2021/07/05 04:45:33;;;;;;;13.23;10.32;;;;;;;;;;5009592;28;20210;-73
2021/07/05 04:48:01;;;;;;;18.38;11.80;;;;;;;;;;5020504;28;20225;-73
2021/07/05 04:50:28;;;;;;;16.27;12.10;;;;;;;;;;5032842;28;20209;-71
2021/07/05 04:52:53;;;;;;;15.48;13.13;;;;;;;;;;5045678;28;20200;-72
2021/07/05 04:55:20;;;;;;;17.55;14.35;;;;;;;;;;5038599;28;20197;-74
2021/07/05 04:57:47;;;;;;;15.30;11.50;;;;;;;;;;5034305;28;20673;-73
2021/07/05 05:00:17;;;;;;;20.95;16.85;;;;;;;;;;5040930;28;20205;-74
2021/07/05 05:02:43;;;;;;;20.05;16.67;;;;;;;;;;5036232;28;20185;-74
2021/07/05 05:05:09;;;;;;;22.73;18.38;;;;;;;;;;5041990;28;20184;-71
2021/07/05 05:07:35;;;;;;;23.23;17.90;;;;;;;;;;5033008;28;20580;-72
2021/07/05 05:10:02;;;;;;;30.50;19.15;;;;;;;;;;5039770;28;20201;-71
2021/07/05 05:12:31;;;;;;;29.52;20.10;;;;;;;;;;5034714;28;20185;-73
2021/07/05 05:14:57;;;;;;;25.13;20.05;;;;;;;;;;5042548;28;20196;-71
2021/07/05 05:17:23;;;;;;;27.48;21.13;;;;;;;;;;5033321;28;20189;-73
2021/07/05 05:19:48;;;;;;;27.08;21.27;;;;;;;;;;5038902;28;20173;-71
2021/07/05 05:22:14;;;;;;;32.20;21.73;;;;;;;;;;5032063;28;20194;-72
2021/07/05 05:24:39;;;;;;;24.42;21.23;;;;;;;;;;5045784;28;20186;-74
2021/07/05 05:27:05;;;;;;;28.02;22.98;;;;;;;;;;5032767;28;20567;-74
2021/07/05 05:29:30;;;;;;;22.00;19.67;;;;;;;;;;5040221;28;20219;-73
2021/07/05 05:31:56;;;;;;;27.85;21.95;;;;;;;;;;5042401;28;20273;-73
2021/07/05 05:34:21;;;;;;;29.73;21.77;;;;;;;;;;5031083;28;20193;-73
2021/07/05 05:36:47;;;;;;;28.55;21.83;;;;;;;;;;5043671;28;20182;-71
2021/07/05 05:39:12;;;;;;;30.38;22.15;;;;;;;;;;5034402;28;20193;-75
2021/07/05 05:41:38;;;;;;;31.80;23.23;;;;;;;;;;5042451;28;20197;-74
2021/07/05 05:44:04;;;;;;;29.58;24.33;;;;;;;;;;5033603;28;20259;-75
2021/07/05 05:46:32;;;;;;;29.23;23.70;;;;;;;;;;5043057;28;20185;-74
2021/07/05 05:48:59;;;;;;;24.85;20.35;;;;;;;;;;5010744;28;20218;-74
2021/07/05 05:51:30;;;;;;;28.88;20.48;;;;;;;;;;5021890;28;20574;-73
2021/07/05 05:53:56;;;;;;;24.60;21.27;;;;;;;;;;4994542;28;20599;-73
2021/07/05 05:56:21;;;;;;;24.83;19.95;;;;;;;;;;5018930;28;20244;-74
2021/07/05 05:58:46;;;;;;;19.88;17.13;;;;;;;;;;5017332;28;20647;-73
2021/07/05 06:01:12;;;;;;;18.85;15.32;;;;;;;;;;5001860;28;20255;-73
2021/07/05 06:03:37;;;;;;;19.08;15.73;;;;;;;;;;5018074;28;20518;-72
2021/07/05 06:06:02;;;;;;;14.05;11.13;;;;;;;;;;5011749;28;20190;-73
2021/07/05 06:08:28;;;;;;;8.15;6.55;;;;;;;;;;5016244;28;20192;-74
2021/07/05 06:10:53;;;;;;;7.28;5.88;;;;;;;;;;4994567;28;20262;-75
2021/07/05 06:13:19;;;;;;;6.70;6.00;;;;;;;;;;5021649;28;20202;-74
2021/07/05 06:15:44;;;;;;;6.53;5.53;;;;;;;;;;5011146;28;20190;-72
2021/07/05 06:18:09;;;;;;;6.82;5.80;;;;;;;;;;5022193;28;20186;-72
2021/07/05 06:20:35;;;;;;;10.50;6.60;;;;;;;;;;5013327;28;20199;-72
2021/07/05 06:23:01;;;;;;;9.55;6.85;;;;;;;;;;5024490;28;20265;-73
2021/07/05 06:25:26;;;;;;;7.15;6.40;;;;;;;;;;5015778;28;20190;-73
2021/07/05 06:27:52;;;;;;;7.95;6.97;;;;;;;;;;5016893;28;20471;-71
2021/07/05 06:30:17;;;;;;;9.32;7.35;;;;;;;;;;4993770;28;20210;-71
2021/07/05 06:32:44;;;;;;;10.57;8.00;;;;;;;;;;5016166;28;20232;-71
2021/07/05 06:35:10;;;;;;;11.15;8.15;;;;;;;;;;5020489;28;20848;-71
2021/07/05 06:37:36;;;;;;;10.50;8.43;;;;;;;;;;5010199;28;20186;-71
2021/07/05 06:40:04;;;;;;;11.73;8.40;;;;;;;;;;5019987;28;20240;-71
2021/07/05 06:42:29;;;;;;;14.30;8.98;;;;;;;;;;5014699;28;20239;-71
2021/07/05 06:44:54;;;;;;;12.57;8.98;;;;;;;;;;5023574;28;20566;-71
2021/07/05 06:47:20;;;;;;;11.05;8.55;;;;;;;;;;5017260;28;20737;-71
2021/07/05 06:49:45;;;;;;;8.55;7.07;;;;;;;;;;5023925;28;20211;-71
2021/07/05 06:52:11;;;;;;;7.80;5.88;;;;;;;;;;5015306;28;20190;-71
2021/07/05 06:54:36;;;;;;;6.10;5.53;;;;;;;;;;5023345;28;20206;-71
2021/07/05 06:57:04;;;;;;;6.65;5.00;;;;;;;;;;5015165;28;20190;-74
2021/07/05 06:59:29;;;;;;;6.95;5.05;;;;;;;;;;5008175;28;20182;-73
2021/07/05 07:01:54;;;;;;;7.63;5.82;;;;;;;;;;5016848;28;20684;-72
2021/07/05 07:04:20;;;;;;;5.95;5.30;;;;;;;;;;5026569;28;20645;-72
2021/07/05 07:06:48;;;;;;;9.50;6.90;;;;;;;;;;5025902;28;20652;-73
2021/07/05 07:09:16;;;;;;;9.50;7.30;;;;;;;;;;4993957;28;20361;-72
2021/07/05 07:11:42;;;;;;;11.48;7.53;;;;;;;;;;5025779;28;20201;-73
2021/07/05 07:14:07;;;;;;;11.82;7.88;;;;;;;;;;5014967;28;20194;-73
2021/07/05 07:16:38;;;;;;;9.93;7.82;;;;;;;;;;5023494;28;20182;-73
2021/07/05 07:19:19;;;;;;;9.30;7.30;;;;;;;;;;5012347;28;20198;-74
2021/07/05 07:21:49;;;;;;;11.38;7.32;;;;;;;;;;5022636;28;20651;-73
2021/07/05 07:24:16;;;;;;;6.60;5.80;;;;;;;;;;5014164;28;20264;-74
2021/07/05 07:26:42;;;;;;;8.85;5.10;;;;;;;;;;5005129;28;20603;-74
2021/07/05 07:29:08;;;;;;;7.30;4.65;;;;;;;;;;5012641;28;20283;-74
2021/07/05 07:31:33;;;;;;;6.97;5.30;;;;;;;;;;5027567;28;20638;-74
2021/07/05 07:33:59;;;;;;;4.32;3.65;;;;;;;;;;4997090;28;20186;-71
2021/07/05 07:36:26;;;;;;;7.07;3.85;;;;;;;;;;5020466;28;20661;-73
2021/07/05 07:38:53;;;;;;;6.20;3.80;;;;;;;;;;5015757;28;20591;-76
2021/07/05 07:41:25;;;;;;;5.53;3.70;;;;;;;;;;5004454;28;20273;-75
2021/07/05 07:43:51;;;;;;;5.57;3.83;;;;;;;;;;5023078;28;20186;-75
2021/07/05 07:46:16;;;;;;;4.82;3.08;;;;;;;;;;5013684;28;20191;-75
2021/07/05 07:48:42;;;;;;;4.43;2.90;;;;;;;;;;5040020;28;20224;-76
2021/07/05 07:51:07;;;;;;;5.63;3.35;;;;;;;;;;5038917;28;20209;-74
2021/07/05 07:53:33;;;;;;;4.70;2.70;;;;;;;;;;5042753;28;20194;-77
2021/07/05 07:55:59;;;;;;;4.75;2.80;;;;;;;;;;5033048;28;20196;-77
2021/07/05 07:58:25;;;;;;;5.45;3.35;;;;;;;;;;5041153;28;20204;-76
2021/07/05 08:00:51;;;;;;;5.18;3.60;;;;;;;;;;5034751;28;20209;-76
2021/07/05 08:03:16;;;;;;;4.85;3.05;;;;;;;;;;5044173;28;20184;-70
2021/07/05 08:05:42;;;;;;;6.70;3.22;;;;;;;;;;5033652;28;20196;-77
2021/07/05 08:08:08;;;;;;;5.25;3.47;;;;;;;;;;5043675;28;20192;-75
2021/07/05 08:10:34;;;;;;;4.97;3.28;;;;;;;;;;5043080;28;20706;-76
2021/07/05 08:13:02;;;;;;;4.50;3.10;;;;;;;;;;5041226;28;20197;-71
2021/07/05 08:15:27;;;;;;;5.03;3.70;;;;;;;;;;5046537;28;20604;-72
2021/07/05 08:17:53;;;;;;;5.25;2.70;;;;;;;;;;5035160;28;20272;-71
2021/07/05 08:20:21;;;;;;;6.18;3.40;;;;;;;;;;5046230;28;20229;-75
2021/07/05 08:22:51;;;;;;;5.68;3.15;;;;;;;;;;5035927;28;20227;-74
2021/07/05 08:25:17;;;;;;;8.35;3.45;;;;;;;;;;5039688;28;20185;-75
2021/07/05 08:27:43;;;;;;;7.90;3.75;;;;;;;;;;5031923;28;20190;-73
2021/07/05 08:30:08;;;;;;;7.68;4.38;;;;;;;;;;5043051;28;20212;-72
2021/07/05 08:32:34;;;;;;;7.03;4.03;;;;;;;;;;5033170;28;20194;-71
2021/07/05 08:35:00;;;;;;;6.88;3.97;;;;;;;;;;5046309;28;20231;-75
2021/07/05 08:37:26;;;;;;;7.85;4.47;;;;;;;;;;5034897;28;20594;-73
2021/07/05 08:39:51;;;;;;;9.45;4.85;;;;;;;;;;5047240;28;20295;-74
2021/07/05 08:42:22;;;;;;;9.45;5.32;;;;;;;;;;5032766;28;20186;-73
2021/07/05 08:44:48;;;;;;;8.40;5.47;;;;;;;;;;5044409;28;20243;-70
2021/07/05 08:47:15;;;;;;;9.77;5.57;;;;;;;;;;5027798;28;20268;-71
2021/07/05 08:49:40;;;;;;;11.02;5.93;;;;;;;;;;5015603;28;20684;-74
2021/07/05 08:52:07;;;;;;;11.45;6.32;;;;;;;;;;5026092;28;20212;-72
2021/07/05 08:54:32;;;;;;;12.85;6.45;;;;;;;;;;4998588;28;20185;-72
2021/07/05 08:56:57;;;;;;;8.95;5.72;;;;;;;;;;5023103;28;20216;-71
2021/07/05 08:59:23;;;;;;;10.35;6.38;;;;;;;;;;5010240;28;20215;-72
2021/07/05 09:01:48;;;;;;;11.40;6.60;;;;;;;;;;5006059;28;20273;-72
2021/07/05 09:04:14;;;;;;;11.10;6.07;;;;;;;;;;5016053;28;20194;-74
2021/07/05 09:07:01;;;;;;;14.45;7.43;;;;;;;;;;5023286;28;20559;-73
2021/07/05 09:09:27;;;;;;;11.00;6.88;;;;;;;;;;5011855;28;20225;-73
2021/07/05 09:11:52;;;;;;;10.98;7.28;;;;;;;;;;5021890;28;20198;-73
2021/07/05 09:14:20;;;;;;;12.25;6.78;;;;;;;;;;5010353;28;20174;-70
2021/07/05 09:16:47;;;;;;;11.30;7.35;;;;;;;;;;5006542;28;20230;-72
2021/07/05 09:19:14;;;;;;;9.88;6.97;;;;;;;;;;5013526;28;20182;-73
2021/07/05 09:21:45;;;;;;;14.52;7.22;;;;;;;;;;5023656;28;20182;-72
2021/07/05 09:24:10;;;;;;;16.55;7.80;;;;;;;;;;5011995;28;20241;-73
2021/07/05 09:26:42;;;;;;;13.25;7.60;;;;;;;;;;5024278;28;20178;-67
2021/07/05 09:29:21;;;;;;;17.65;8.68;;;;;;;;;;5016783;28;20597;-71
2021/07/05 09:31:57;;;;;;;12.55;7.40;;;;;;;;;;5021697;28;20658;-72
2021/07/05 09:34:30;;;;;;;14.55;7.55;;;;;;;;;;5012959;28;20276;-71
2021/07/05 09:37:34;;;;;;;12.55;7.80;;;;;;;;;;5003085;28;20193;-73
2021/07/05 09:40:05;;;;;;;11.00;7.10;;;;;;;;;;5013061;28;20186;-71
2021/07/05 09:42:53;;;;;;;14.50;7.88;;;;;;;;;;5002779;28;20653;-71
2021/07/05 09:45:18;;;;;;;12.35;8.20;;;;;;;;;;4994759;28;20193;-69
2021/07/05 09:47:43;;;;;;;12.75;7.85;;;;;;;;;;5021287;28;20226;-73
2021/07/05 09:50:17;;;;;;;11.20;7.57;;;;;;;;;;5001722;28;20305;-72
2021/07/05 09:52:43;;;;;;;9.05;7.25;;;;;;;;;;5017500;28;20204;-71
2021/07/05 09:55:16;;;;;;;13.27;8.20;;;;;;;;;;5020540;28;20179;-72
2021/07/05 09:57:48;;;;;;;17.95;7.03;;;;;;;;;;5013249;28;20264;-72
2021/07/05 10:00:22;;;;;;;11.25;7.68;;;;;;;;;;5017988;28;20686;-72
2021/07/05 10:03:05;;;;;;;14.05;7.10;;;;;;;;;;4991202;28;20186;-73
2021/07/05 10:05:46;;;;;;;13.35;6.88;;;;;;;;;;5022787;28;20187;-73
2021/07/05 10:08:15;;;;;;;10.52;6.90;;;;;;;;;;5008337;28;20236;-69
2021/07/05 10:10:42;;;;;;;12.52;6.50;;;;;;;;;;5021421;28;20294;-71
2021/07/05 10:13:10;;;;;;;16.80;6.47;;;;;;;;;;5012899;28;20190;-72
2021/07/05 10:15:36;;;;;;;11.55;6.38;;;;;;;;;;5024244;28;20343;-70
2021/07/05 10:18:03;;;;;;;10.82;5.55;;;;;;;;;;5013157;28;20190;-72
2021/07/05 10:20:31;;;;;;;95.72;12.88;;;;;;;;;;5025239;28;20235;-72
2021/07/05 10:23:01;;;;;;;9.45;5.07;;;;;;;;;;5018292;28;20181;-72
2021/07/05 10:25:29;;;;;;;12.20;5.47;;;;;;;;;;4996136;28;20504;-71
2021/07/05 10:27:55;;;;;;;10.43;5.35;;;;;;;;;;4996505;28;20194;-71
2021/07/05 10:30:21;;;;;;;13.43;5.13;;;;;;;;;;5025819;28;20224;-72
2021/07/05 10:32:48;;;;;;;9.40;5.88;;;;;;;;;;5018589;28;20187;-73
2021/07/05 10:35:17;;;;;;;10.23;5.45;;;;;;;;;;5028876;28;20186;-73
2021/07/05 10:37:53;;;;;;;12.90;5.70;;;;;;;;;;5002318;28;20760;-74
2021/07/05 10:40:18;;;;;;;10.75;5.60;;;;;;;;;;5008730;28;20182;-74
2021/07/05 10:42:53;;;;;;;12.50;5.95;;;;;;;;;;5020437;28;20202;-74
2021/07/05 10:45:19;;;;;;;9.68;5.50;;;;;;;;;;5026515;28;20258;-74
2021/07/05 10:47:52;;;;;;;9.57;5.18;;;;;;;;;;5023911;28;20273;-72
2021/07/05 10:50:41;;;;;;;9.82;5.15;;;;;;;;;;5011841;28;20209;-72
2021/07/05 10:53:08;;;;;;;7.28;5.03;;;;;;;;;;5026252;28;20228;-72
2021/07/05 10:55:52;;;;;;;8.50;5.18;;;;;;;;;;5008053;28;20187;-73
2021/07/05 10:58:20;;;;;;;9.02;5.25;;;;;;;;;;5027680;28;20240;-71
2021/07/05 11:00:48;;;;;;;9.27;5.05;;;;;;;;;;5013783;28;20205;-71
2021/07/05 11:03:49;;;;;;;9.85;4.68;;;;;;;;;;5024536;28;20186;-73
2021/07/05 11:06:14;;;;;;;10.80;5.25;;;;;;;;;;4939350;28;20200;-72
2021/07/05 11:08:52;;;;;;;10.60;5.10;;;;;;;;;;5008911;28;20213;-73
2021/07/05 11:11:25;;;;;;;10.60;5.07;;;;;;;;;;5012182;28;20270;-73
2021/07/05 11:14:14;;;;;;;9.70;4.25;;;;;;;;;;5007006;28;20186;-71
2021/07/05 11:16:56;;;;;;;10.70;4.70;;;;;;;;;;5017103;28;20216;-73
2021/07/05 11:19:49;;;;;;;9.90;4.82;;;;;;;;;;5007135;28;20183;-72
2021/07/05 11:22:21;;;;;;;8.85;4.07;;;;;;;;;;5023615;28;20190;-71
2021/07/05 11:25:21;;;;;;;10.25;4.45;;;;;;;;;;5023801;28;20213;-73
2021/07/05 11:27:53;;;;;;;10.10;4.43;;;;;;;;;;5020118;28;20256;-72
2021/07/05 11:30:35;;;;;;;11.88;4.30;;;;;;;;;;5016893;28;20205;-72
2021/07/05 11:33:06;;;;;;;12.40;4.43;;;;;;;;;;5023763;28;20217;-73
2021/07/05 11:35:47;;;;;;;9.32;3.83;;;;;;;;;;5016603;28;20193;-71
2021/07/05 11:38:41;;;;;;;10.48;4.60;;;;;;;;;;5020620;28;20186;-71
2021/07/05 11:41:12;;;;;;;9.23;3.85;;;;;;;;;;5015807;28;20436;-71
2021/07/05 11:44:05;;;;;;;6.70;4.00;;;;;;;;;;5022253;28;20263;-73
2021/07/05 11:46:30;;;;;;;5.97;2.90;;;;;;;;;;5014574;28;20550;-73
2021/07/05 11:48:58;;;;;;;10.20;3.33;;;;;;;;;;5023803;28;20213;-73
2021/07/05 11:51:32;;;;;;;10.55;3.97;;;;;;;;;;5016235;28;20273;-72
2021/07/05 11:54:02;;;;;;;7.15;3.40;;;;;;;;;;5017012;28;20227;-70
2021/07/05 11:56:33;;;;;;;7.53;3.95;;;;;;;;;;5024788;28;20548;-74
2021/07/05 11:59:00;;;;;;;6.50;3.75;;;;;;;;;;5015857;28;20179;-73
2021/07/05 12:01:27;;;;;;;13.32;4.00;;;;;;;;;;5025812;28;20546;-71
2021/07/05 12:03:54;;;;;;;8.77;3.70;;;;;;;;;;5012339;28;20187;-71
2021/07/05 12:06:20;;;;;;;6.70;3.20;;;;;;;;;;5021111;28;20210;-72
2021/07/05 12:09:04;;;;;;;7.95;3.65;;;;;;;;;;5015004;28;20221;-73
2021/07/05 12:11:50;;;;;;;7.18;3.50;;;;;;;;;;5025783;28;20225;-70
2021/07/05 12:14:22;;;;;;;8.57;3.47;;;;;;;;;;5013917;28;20190;-71
2021/07/05 12:16:50;;;;;;;7.70;2.70;;;;;;;;;;5022244;28;20232;-70
2021/07/05 12:19:16;;;;;;;7.13;3.05;;;;;;;;;;5012541;28;20190;-72
2021/07/05 12:21:45;;;;;;;10.18;2.95;;;;;;;;;;5026716;28;20237;-73
2021/07/05 12:24:32;;;;;;;9.05;3.60;;;;;;;;;;5012408;28;20264;-73
2021/07/05 12:27:03;;;;;;;7.93;2.45;;;;;;;;;;5024868;28;20213;-73
2021/07/05 12:29:33;;;;;;;5.45;2.83;;;;;;;;;;5010250;28;20241;-73
2021/07/05 12:32:26;;;;;;;7.75;3.05;;;;;;;;;;5019751;28;20214;-72
2021/07/05 12:35:08;;;;;;;5.95;2.88;;;;;;;;;;5012299;28;20684;-72
2021/07/05 12:37:37;;;;;;;6.10;2.67;;;;;;;;;;5021546;28;20284;-73
2021/07/05 12:40:11;;;;;;;7.43;3.17;;;;;;;;;;5013284;28;20194;-72
2021/07/05 12:42:47;;;;;;;9.32;3.10;;;;;;;;;;5024351;28;20182;-72
2021/07/05 12:45:18;;;;;;;10.63;2.80;;;;;;;;;;5010214;28;20190;-74
2021/07/05 12:48:11;;;;;;;8.05;3.05;;;;;;;;;;5022279;28;20226;-71
2021/07/05 12:50:39;;;;;;;7.53;2.58;;;;;;;;;;5015446;28;20253;-73
2021/07/05 12:53:06;;;;;;;7.22;2.67;;;;;;;;;;5020142;28;20356;-70
2021/07/05 12:55:33;;;;;;;5.32;2.35;;;;;;;;;;5013937;28;20217;-70
2021/07/05 12:57:59;;;;;;;7.40;2.50;;;;;;;;;;5021758;28;20617;-71
2021/07/05 13:00:26;;;;;;;6.80;2.08;;;;;;;;;;5011443;28;20203;-71
2021/07/05 13:03:05;;;;;;;6.18;2.10;;;;;;;;;;5023154;28;20193;-72
2021/07/05 13:05:31;;;;;;;7.72;2.33;;;;;;;;;;4992759;28;22133;-73
2021/07/05 13:07:58;;;;;;;6.05;2.13;;;;;;;;;;5022190;28;20192;-72
2021/07/05 13:10:40;;;;;;;4.15;2.10;;;;;;;;;;5021507;28;20281;-72
2021/07/05 13:13:11;;;;;;;4.88;1.80;;;;;;;;;;5021727;28;20253;-72
2021/07/05 13:15:40;;;;;;;7.20;1.83;;;;;;;;;;5015691;28;20270;-72
2021/07/05 13:18:34;;;;;;;5.13;1.95;;;;;;;;;;5013118;28;20900;-71
2021/07/05 13:20:59;;;;;;;6.22;2.03;;;;;;;;;;4989921;28;20228;-70
2021/07/05 13:23:40;;;;;;;3.50;1.45;;;;;;;;;;5018417;28;20232;-73
2021/07/05 13:26:07;;;;;;;8.07;2.13;;;;;;;;;;5016151;28;20209;-71
2021/07/05 13:28:43;;;;;;;4.95;2.20;;;;;;;;;;4994491;28;20194;-72
2021/07/05 13:31:08;;;;;;;5.88;1.73;;;;;;;;;;5016551;28;20213;-73
2021/07/05 13:33:35;;;;;;;3.58;1.80;;;;;;;;;;4991131;28;20374;-74
2021/07/05 13:36:04;;;;;;;6.50;2.00;;;;;;;;;;5016200;28;20194;-74
2021/07/05 13:38:31;;;;;;;3.78;1.77;;;;;;;;;;5004534;28;20190;-74
2021/07/05 13:41:04;;;;;;;4.85;2.10;;;;;;;;;;5016957;28;20178;-76
2021/07/05 13:43:29;;;;;;;4.72;1.98;;;;;;;;;;4994585;28;20252;-72
2021/07/05 13:45:59;;;;;;;6.47;2.15;;;;;;;;;;5017928;28;20950;-72
2021/07/05 13:48:33;;;;;;;7.60;2.38;;;;;;;;;;5003196;28;20304;-73
2021/07/05 13:51:05;;;;;;;3.25;1.83;;;;;;;;;;5016255;28;20634;-74
2021/07/05 13:53:33;;;;;;;4.88;1.83;;;;;;;;;;5017437;28;20210;-73
2021/07/05 13:56:04;;;;;;;4.82;1.88;;;;;;;;;;5025078;28;20185;-70
2021/07/05 13:58:35;;;;;;;6.15;2.35;;;;;;;;;;5016412;28;20206;-73
2021/07/05 14:01:07;;;;;;;5.00;2.25;;;;;;;;;;5026055;28;20312;-73
2021/07/05 14:03:33;;;;;;;9.40;2.10;;;;;;;;;;5020014;28;20964;-72
2021/07/05 14:06:05;;;;;;;4.70;1.92;;;;;;;;;;5024781;28;20327;-73
2021/07/05 14:08:31;;;;;;;5.93;2.05;;;;;;;;;;5025143;28;20276;-72
2021/07/05 14:11:07;;;;;;;7.45;2.20;;;;;;;;;;5006326;28;20222;-71
2021/07/05 14:13:36;;;;;;;6.68;2.50;;;;;;;;;;5013663;28;20548;-73
2021/07/05 14:16:03;;;;;;;5.43;1.98;;;;;;;;;;5020941;28;20216;-72
2021/07/05 14:18:29;;;;;;;5.68;3.05;;;;;;;;;;5030850;28;20205;-71
2021/07/05 14:20:56;;;;;;;7.18;2.40;;;;;;;;;;5020329;28;20190;-71
2021/07/05 14:23:23;;;;;;;5.60;3.05;;;;;;;;;;5029285;28;20255;-71
2021/07/05 14:25:52;;;;;;;6.57;3.03;;;;;;;;;;5001691;28;20272;-72
2021/07/05 14:28:18;;;;;;;7.63;3.17;;;;;;;;;;5025487;28;20597;-72
2021/07/05 14:30:44;;;;;;;5.55;3.00;;;;;;;;;;5020892;28;20205;-73
2021/07/05 14:33:10;;;;;;;3.58;1.90;;;;;;;;;;5023066;28;20206;-71
2021/07/05 14:35:38;;;;;;;6.03;2.47;;;;;;;;;;5016747;28;20538;-72